< < Back
Terminal Aerodrome Forecast


Current Version              Previous Versions:   1  2  3  4  5  6  7  8  9  

Terminal Aerodrome Forecast

979
FTUS42 KJAX 261120
TAFSSI
TAF
KSSI 261120Z 2612/2712 22005KT P6SM SKC
     FM261700 14010KT P6SM VCSH FEW035
     FM270200 20006KT P6SM SCT250=



Latest METAR

458
SAUS70 KWBC 261800 RRK
MTRSSI
METAR KSSI 261753Z AUTO 13011KT 10SM CLR 32/23 A3006 RMK AO2 SLP180
T03220233 10333 20272 58009


USA.gov is the U.S. government's official web portal to all federal, state and local government web resources and services.